Terminal Aerodrome Forecast
Issued by NWS

Home | Current Version | Previous Version | Text Only | Print | Product List | Glossary On
Versions: 1 2 3 4 5 6 7 8 9 10 11 12 13 14 15 16
258
FTUS43 KDLH 302337
TAFHYR
TAF
KHYR 302337Z 0100/0124 05014G21KT P6SM -RA OVC050
     FM010300 06013G20KT 6SM RA BR OVC025
     FM010600 05012G19KT 5SM RA BR OVC012
     FM011000 05013G20KT 4SM RA SCT004 OVC007
     FM011500 04012G19KT 3SM -RASN OVC006=

USA.gov is the U.S. government's official web portal to all federal, state and local government web resources and services.